Sipesville, PA (15561)

12:39 PM EDT on April 25, 2015 (GMT -0400)
Out in the country | | Change Station
CLOSE
Current Station
Personal Weather Station
Location: Somerset, PA
Elevation: 2200 ft
Nearby Weather Stations

Elev 2200 ft 40.07 °N, 79.17 °W | Updated 3 seconds ago

Overcast
Overcast
43.4 °F
Feels Like 40 °F
N
5.0
Wind Variable Wind from NNE
Gusts 9.0 mph

Today
High -- | Low -- °F
--% Chance of Precip.
Yesterday
High -- | Low -- °F
Precip. -- in
6:24 AM 8:04 PM
Waxing Crescent, 47% visible
Pressure 29.91 in
Visibility 20.0 miles
Clouds Scattered Clouds 4200 ft
Overcast 6000 ft
Windchill 40 °F
Dew Point 34 °F
Humidity 69%
Rainfall 0.05 in
Snow Depth Not available.
UV 3 out of 12
Pollen 7.90 out of 12
Air Quality Not available.
Flu Activity Sporadic
METAR KLBE 251550Z 36008KT 20SM SCT042 OVC060 05/03 A2991

More Conditions Fewer Conditions

Pressure 29.91 in
Visibility 20.0 miles
Clouds Scattered Clouds 4200 ft
Overcast 6000 ft
Windchill 40 °F
Dew Point 34 °F
Humidity 69%
Rainfall 0.05 in
Snow Depth Not available.
UV 3 out of 12
Pollen 7.90 out of 12
Air Quality Not available.
Flu Activity Sporadic
METAR KLBE 251550Z 36008KT 20SM SCT042 OVC060 05/03 A2991

More Conditions Fewer Conditions

10-Day Weather Forecast

Almanac

Astronomy

Apr. 25, 2015 Rise Set
Actual Time
Civil Twilight
Nautical Twilight
Astronomical Twilight
Moon
Length of Visible Light
Length of Day
Tomorrow will be .
, % of the Moon is Illuminated

Today's Extremes

State Highs State Lows

Community

WunderPhotos

Upload Photos

1,816,735 photos uploaded!

WunderBlogs® & News

Nearby

Air Quality

  Air Quality AQ Index Pollutant
Not available.

Snow Depth

Station Depth Elevation

Earthquake Activity

City Distance Mag. Time & Date
Minimum magnitude displayed is 2.5.

Coastal Water Temperatures

Place Temperature

Stations

Nearby Weather Stations

Station Location Temp. Windchill Dew Point Humidity Wind Precip. Elev Updated Type